sensor_id;sensor_type;location;lat;lon;timestamp;P1;durP1;ratioP1;P2;durP2;ratioP2
43646;SDS011;56152;49.996;18.980;2022-09-03T00:03:05;7.22;;;3.55;;
43646;SDS011;56152;49.996;18.980;2022-09-03T00:08:26;6.13;;;3.63;;
43646;SDS011;56152;49.996;18.980;2022-09-03T00:13:34;7.17;;;3.47;;
43646;SDS011;56152;49.996;18.980;2022-09-03T00:18:41;8.63;;;2.88;;
43646;SDS011;56152;49.996;18.980;2022-09-03T00:23:47;7.63;;;3.42;;
43646;SDS011;56152;49.996;18.980;2022-09-03T00:28:56;6.15;;;3.22;;
43646;SDS011;56152;49.996;18.980;2022-09-03T00:34:06;5.13;;;3.00;;
43646;SDS011;56152;49.996;18.980;2022-09-03T00:39:14;4.03;;;2.42;;
43646;SDS011;56152;49.996;18.980;2022-09-03T00:50:11;4.82;;;3.05;;
43646;SDS011;56152;49.996;18.980;2022-09-03T00:55:33;5.50;;;3.00;;
43646;SDS011;56152;49.996;18.980;2022-09-03T01:00:44;5.15;;;3.25;;
43646;SDS011;56152;49.996;18.980;2022-09-03T01:06:06;9.32;;;3.40;;
43646;SDS011;56152;49.996;18.980;2022-09-03T01:11:20;9.50;;;3.80;;
43646;SDS011;56152;49.996;18.980;2022-09-03T01:16:31;5.32;;;3.00;;
43646;SDS011;56152;49.996;18.980;2022-09-03T01:21:51;4.45;;;2.83;;
43646;SDS011;56152;49.996;18.980;2022-09-03T01:32:42;7.00;;;2.80;;
43646;SDS011;56152;49.996;18.980;2022-09-03T01:38:10;8.32;;;3.22;;
43646;SDS011;56152;49.996;18.980;2022-09-03T01:43:29;4.28;;;2.78;;
43646;SDS011;56152;49.996;18.980;2022-09-03T01:48:52;5.93;;;3.05;;
43646;SDS011;56152;49.996;18.980;2022-09-03T01:54:40;6.32;;;3.90;;
43646;SDS011;56152;49.996;18.980;2022-09-03T01:59:52;7.03;;;3.30;;
43646;SDS011;56152;49.996;18.980;2022-09-03T02:05:01;6.43;;;3.92;;
43646;SDS011;56152;49.996;18.980;2022-09-03T02:10:10;10.38;;;2.45;;
43646;SDS011;56152;49.996;18.980;2022-09-03T02:15:30;6.78;;;3.53;;
43646;SDS011;56152;49.996;18.980;2022-09-03T02:20:36;8.82;;;3.60;;
43646;SDS011;56152;49.996;18.980;2022-09-03T02:25:40;8.85;;;4.28;;
43646;SDS011;56152;49.996;18.980;2022-09-03T02:30:47;7.00;;;3.95;;
43646;SDS011;56152;49.996;18.980;2022-09-03T02:36:01;6.53;;;3.45;;
43646;SDS011;56152;49.996;18.980;2022-09-03T02:41:05;8.52;;;3.60;;
43646;SDS011;56152;49.996;18.980;2022-09-03T02:46:09;4.97;;;2.83;;
43646;SDS011;56152;49.996;18.980;2022-09-03T02:51:17;4.00;;;2.40;;
43646;SDS011;56152;49.996;18.980;2022-09-03T02:56:22;5.85;;;3.70;;
43646;SDS011;56152;49.996;18.980;2022-09-03T03:01:26;6.25;;;2.92;;
43646;SDS011;56152;49.996;18.980;2022-09-03T03:06:30;6.97;;;3.58;;
43646;SDS011;56152;49.996;18.980;2022-09-03T03:11:38;5.90;;;3.13;;
43646;SDS011;56152;49.996;18.980;2022-09-03T03:16:40;9.70;;;4.45;;
43646;SDS011;56152;49.996;18.980;2022-09-03T03:21:54;6.30;;;3.47;;
43646;SDS011;56152;49.996;18.980;2022-09-03T03:26:56;6.28;;;3.78;;
43646;SDS011;56152;49.996;18.980;2022-09-03T03:31:58;4.65;;;3.33;;
43646;SDS011;56152;49.996;18.980;2022-09-03T03:37:07;9.57;;;4.80;;
43646;SDS011;56152;49.996;18.980;2022-09-03T03:42:11;10.75;;;4.40;;
43646;SDS011;56152;49.996;18.980;2022-09-03T03:47:20;5.35;;;3.50;;
43646;SDS011;56152;49.996;18.980;2022-09-03T03:52:25;5.25;;;3.45;;
43646;SDS011;56152;49.996;18.980;2022-09-03T03:57:28;7.15;;;3.58;;
43646;SDS011;56152;49.996;18.980;2022-09-03T04:02:37;5.03;;;3.22;;
43646;SDS011;56152;49.996;18.980;2022-09-03T04:07:43;5.50;;;3.25;;
43646;SDS011;56152;49.996;18.980;2022-09-03T04:12:55;6.43;;;3.53;;
43646;SDS011;56152;49.996;18.980;2022-09-03T04:17:57;4.30;;;2.55;;
43646;SDS011;56152;49.996;18.980;2022-09-03T04:23:02;10.18;;;4.13;;
43646;SDS011;56152;49.996;18.980;2022-09-03T04:28:08;7.82;;;3.30;;
43646;SDS011;56152;49.996;18.980;2022-09-03T04:33:10;5.53;;;2.72;;
43646;SDS011;56152;49.996;18.980;2022-09-03T04:38:32;3.38;;;2.65;;
43646;SDS011;56152;49.996;18.980;2022-09-03T04:43:35;6.07;;;2.95;;
43646;SDS011;56152;49.996;18.980;2022-09-03T04:48:38;4.68;;;2.40;;
43646;SDS011;56152;49.996;18.980;2022-09-03T04:53:52;3.75;;;3.00;;
43646;SDS011;56152;49.996;18.980;2022-09-03T05:04:04;6.82;;;3.03;;
43646;SDS011;56152;49.996;18.980;2022-09-03T05:09:11;5.45;;;2.65;;
43646;SDS011;56152;49.996;18.980;2022-09-03T05:14:13;5.07;;;2.92;;
43646;SDS011;56152;49.996;18.980;2022-09-03T05:19:16;9.82;;;3.83;;
43646;SDS011;56152;49.996;18.980;2022-09-03T05:24:20;9.38;;;3.72;;
43646;SDS011;56152;49.996;18.980;2022-09-03T05:29:22;6.32;;;3.70;;
43646;SDS011;56152;49.996;18.980;2022-09-03T05:34:25;6.68;;;3.65;;
43646;SDS011;56152;49.996;18.980;2022-09-03T05:39:36;9.48;;;4.07;;
43646;SDS011;56152;49.996;18.980;2022-09-03T05:44:38;11.05;;;4.43;;
43646;SDS011;56152;49.996;18.980;2022-09-03T05:49:41;10.10;;;4.18;;
43646;SDS011;56152;49.996;18.980;2022-09-03T05:54:45;6.70;;;3.40;;
43646;SDS011;56152;49.996;18.980;2022-09-03T05:59:47;9.63;;;4.07;;
43646;SDS011;56152;49.996;18.980;2022-09-03T06:04:52;11.02;;;3.50;;
43646;SDS011;56152;49.996;18.980;2022-09-03T06:09:57;5.38;;;2.78;;
43646;SDS011;56152;49.996;18.980;2022-09-03T06:14:59;8.00;;;3.30;;
43646;SDS011;56152;49.996;18.980;2022-09-03T06:20:01;8.90;;;3.40;;
43646;SDS011;56152;49.996;18.980;2022-09-03T06:25:06;9.07;;;3.55;;
43646;SDS011;56152;49.996;18.980;2022-09-03T06:30:09;5.97;;;3.67;;
43646;SDS011;56152;49.996;18.980;2022-09-03T06:35:13;7.07;;;3.58;;
43646;SDS011;56152;49.996;18.980;2022-09-03T06:40:17;7.90;;;3.95;;
43646;SDS011;56152;49.996;18.980;2022-09-03T06:45:21;8.85;;;3.42;;
43646;SDS011;56152;49.996;18.980;2022-09-03T06:50:39;7.00;;;3.42;;
43646;SDS011;56152;49.996;18.980;2022-09-03T06:55:43;5.50;;;3.13;;
43646;SDS011;56152;49.996;18.980;2022-09-03T07:00:59;10.25;;;4.18;;
43646;SDS011;56152;49.996;18.980;2022-09-03T07:06:03;5.72;;;3.15;;
43646;SDS011;56152;49.996;18.980;2022-09-03T07:11:08;5.93;;;3.50;;
43646;SDS011;56152;49.996;18.980;2022-09-03T07:16:11;15.98;;;4.15;;
43646;SDS011;56152;49.996;18.980;2022-09-03T07:21:16;8.52;;;3.88;;
43646;SDS011;56152;49.996;18.980;2022-09-03T07:26:22;7.55;;;3.78;;
43646;SDS011;56152;49.996;18.980;2022-09-03T07:31:25;8.13;;;3.38;;
43646;SDS011;56152;49.996;18.980;2022-09-03T07:36:33;5.32;;;3.33;;
43646;SDS011;56152;49.996;18.980;2022-09-03T07:41:43;6.05;;;2.88;;
43646;SDS011;56152;49.996;18.980;2022-09-03T07:46:46;9.40;;;4.00;;
43646;SDS011;56152;49.996;18.980;2022-09-03T07:51:50;9.30;;;3.50;;
43646;SDS011;56152;49.996;18.980;2022-09-03T07:56:59;6.82;;;3.10;;
43646;SDS011;56152;49.996;18.980;2022-09-03T08:02:01;8.63;;;3.10;;
43646;SDS011;56152;49.996;18.980;2022-09-03T08:07:05;6.03;;;3.00;;
43646;SDS011;56152;49.996;18.980;2022-09-03T08:12:09;8.60;;;3.38;;
43646;SDS011;56152;49.996;18.980;2022-09-03T08:17:11;7.05;;;3.30;;
43646;SDS011;56152;49.996;18.980;2022-09-03T08:22:14;10.10;;;3.15;;
43646;SDS011;56152;49.996;18.980;2022-09-03T08:27:18;5.57;;;2.50;;
43646;SDS011;56152;49.996;18.980;2022-09-03T08:32:24;6.45;;;2.88;;
43646;SDS011;56152;49.996;18.980;2022-09-03T08:37:26;9.25;;;2.90;;
43646;SDS011;56152;49.996;18.980;2022-09-03T08:42:40;5.60;;;2.95;;
43646;SDS011;56152;49.996;18.980;2022-09-03T08:47:53;5.35;;;2.72;;
43646;SDS011;56152;49.996;18.980;2022-09-03T08:53:05;6.95;;;2.97;;
43646;SDS011;56152;49.996;18.980;2022-09-03T08:58:16;6.72;;;3.10;;
43646;SDS011;56152;49.996;18.980;2022-09-03T09:03:32;7.47;;;2.85;;
43646;SDS011;56152;49.996;18.980;2022-09-03T09:08:45;3.38;;;2.30;;
43646;SDS011;56152;49.996;18.980;2022-09-03T09:13:56;4.38;;;2.88;;
43646;SDS011;56152;49.996;18.980;2022-09-03T09:19:07;4.10;;;2.42;;
43646;SDS011;56152;49.996;18.980;2022-09-03T09:24:21;5.85;;;2.60;;
43646;SDS011;56152;49.996;18.980;2022-09-03T09:29:28;6.18;;;2.90;;
43646;SDS011;56152;49.996;18.980;2022-09-03T09:34:33;5.65;;;2.42;;
43646;SDS011;56152;49.996;18.980;2022-09-03T09:39:36;3.67;;;2.20;;
43646;SDS011;56152;49.996;18.980;2022-09-03T09:44:40;5.68;;;2.38;;
43646;SDS011;56152;49.996;18.980;2022-09-03T09:49:50;3.10;;;2.10;;
43646;SDS011;56152;49.996;18.980;2022-09-03T09:55:04;3.60;;;2.30;;
43646;SDS011;56152;49.996;18.980;2022-09-03T10:00:16;4.45;;;2.38;;
43646;SDS011;56152;49.996;18.980;2022-09-03T10:05:22;3.80;;;2.70;;
43646;SDS011;56152;49.996;18.980;2022-09-03T10:10:30;4.07;;;2.60;;
43646;SDS011;56152;49.996;18.980;2022-09-03T10:15:43;4.20;;;2.22;;
43646;SDS011;56152;49.996;18.980;2022-09-03T10:20:51;4.18;;;2.50;;
43646;SDS011;56152;49.996;18.980;2022-09-03T10:26:06;4.35;;;2.78;;
43646;SDS011;56152;49.996;18.980;2022-09-03T10:31:27;4.40;;;2.97;;
43646;SDS011;56152;49.996;18.980;2022-09-03T10:36:49;4.13;;;2.50;;
43646;SDS011;56152;49.996;18.980;2022-09-03T10:42:05;3.28;;;2.53;;
43646;SDS011;56152;49.996;18.980;2022-09-03T10:47:34;6.47;;;5.03;;
43646;SDS011;56152;49.996;18.980;2022-09-03T10:52:58;6.47;;;3.33;;
43646;SDS011;56152;49.996;18.980;2022-09-03T10:58:11;4.43;;;2.72;;
43646;SDS011;56152;49.996;18.980;2022-09-03T11:03:39;4.22;;;2.70;;
43646;SDS011;56152;49.996;18.980;2022-09-03T11:08:46;6.47;;;2.42;;
43646;SDS011;56152;49.996;18.980;2022-09-03T11:13:55;5.57;;;2.50;;
43646;SDS011;56152;49.996;18.980;2022-09-03T11:24:12;6.53;;;2.28;;
43646;SDS011;56152;49.996;18.980;2022-09-03T11:29:19;5.28;;;2.60;;
43646;SDS011;56152;49.996;18.980;2022-09-03T11:39:55;4.22;;;2.80;;
43646;SDS011;56152;49.996;18.980;2022-09-03T12:02:18;3.78;;;2.63;;
43646;SDS011;56152;49.996;18.980;2022-09-03T12:07:43;3.38;;;2.58;;
43646;SDS011;56152;49.996;18.980;2022-09-03T12:13:12;3.70;;;2.55;;
43646;SDS011;56152;49.996;18.980;2022-09-03T12:18:26;6.70;;;2.42;;
43646;SDS011;56152;49.996;18.980;2022-09-03T12:23:32;4.38;;;2.75;;
43646;SDS011;56152;49.996;18.980;2022-09-03T12:28:37;6.55;;;3.05;;
43646;SDS011;56152;49.996;18.980;2022-09-03T12:33:48;6.07;;;3.03;;
43646;SDS011;56152;49.996;18.980;2022-09-03T12:39:06;4.05;;;3.03;;
43646;SDS011;56152;49.996;18.980;2022-09-03T12:44:09;5.93;;;4.10;;
43646;SDS011;56152;49.996;18.980;2022-09-03T12:49:23;8.40;;;4.45;;
43646;SDS011;56152;49.996;18.980;2022-09-03T12:54:25;4.30;;;3.17;;
43646;SDS011;56152;49.996;18.980;2022-09-03T12:59:31;5.38;;;3.78;;
43646;SDS011;56152;49.996;18.980;2022-09-03T13:10:29;6.15;;;3.88;;
43646;SDS011;56152;49.996;18.980;2022-09-03T13:15:37;5.40;;;3.30;;
43646;SDS011;56152;49.996;18.980;2022-09-03T13:32:06;5.18;;;3.50;;
43646;SDS011;56152;49.996;18.980;2022-09-03T13:37:29;5.63;;;3.53;;
43646;SDS011;56152;49.996;18.980;2022-09-03T13:42:44;4.85;;;3.65;;
43646;SDS011;56152;49.996;18.980;2022-09-03T13:48:07;6.57;;;3.30;;
43646;SDS011;56152;49.996;18.980;2022-09-03T13:59:24;11.73;;;3.70;;
43646;SDS011;56152;49.996;18.980;2022-09-03T14:04:43;3.50;;;3.20;;
43646;SDS011;56152;49.996;18.980;2022-09-03T14:21:46;4.45;;;3.00;;
43646;SDS011;56152;49.996;18.980;2022-09-03T14:27:10;11.07;;;3.10;;
43646;SDS011;56152;49.996;18.980;2022-09-03T14:43:27;4.95;;;2.42;;
43646;SDS011;56152;49.996;18.980;2022-09-03T14:49:00;23.48;;;3.33;;
43646;SDS011;56152;49.996;18.980;2022-09-03T14:54:28;4.45;;;3.40;;
43646;SDS011;56152;49.996;18.980;2022-09-03T14:59:47;5.20;;;3.33;;
43646;SDS011;56152;49.996;18.980;2022-09-03T15:05:09;6.78;;;3.97;;
43646;SDS011;56152;49.996;18.980;2022-09-03T15:10:20;4.72;;;3.28;;
43646;SDS011;56152;49.996;18.980;2022-09-03T15:15:43;8.27;;;3.53;;
43646;SDS011;56152;49.996;18.980;2022-09-03T15:21:20;7.18;;;3.22;;
43646;SDS011;56152;49.996;18.980;2022-09-03T15:26:38;5.22;;;3.75;;
43646;SDS011;56152;49.996;18.980;2022-09-03T15:31:54;4.65;;;3.25;;
43646;SDS011;56152;49.996;18.980;2022-09-03T15:37:16;4.20;;;2.65;;
43646;SDS011;56152;49.996;18.980;2022-09-03T15:57:55;6.03;;;3.95;;
43646;SDS011;56152;49.996;18.980;2022-09-03T16:03:07;3.72;;;2.72;;
43646;SDS011;56152;49.996;18.980;2022-09-03T16:08:20;5.22;;;2.92;;
43646;SDS011;56152;49.996;18.980;2022-09-03T16:13:33;11.90;;;7.90;;
43646;SDS011;56152;49.996;18.980;2022-09-03T16:18:54;7.93;;;3.45;;
43646;SDS011;56152;49.996;18.980;2022-09-03T16:24:04;6.13;;;3.40;;
43646;SDS011;56152;49.996;18.980;2022-09-03T16:29:15;7.57;;;3.40;;
43646;SDS011;56152;49.996;18.980;2022-09-03T16:34:19;6.38;;;4.07;;
43646;SDS011;56152;49.996;18.980;2022-09-03T16:39:41;5.15;;;3.38;;
43646;SDS011;56152;49.996;18.980;2022-09-03T16:45:05;5.03;;;3.53;;
43646;SDS011;56152;49.996;18.980;2022-09-03T16:50:19;4.82;;;3.63;;
43646;SDS011;56152;49.996;18.980;2022-09-03T16:55:32;7.13;;;4.50;;
43646;SDS011;56152;49.996;18.980;2022-09-03T17:00:56;7.38;;;3.88;;
43646;SDS011;56152;49.996;18.980;2022-09-03T17:06:15;6.43;;;3.70;;
43646;SDS011;56152;49.996;18.980;2022-09-03T17:11:49;7.38;;;4.35;;
43646;SDS011;56152;49.996;18.980;2022-09-03T17:17:00;8.52;;;4.70;;
43646;SDS011;56152;49.996;18.980;2022-09-03T17:22:16;6.25;;;4.38;;
43646;SDS011;56152;49.996;18.980;2022-09-03T17:27:49;12.73;;;7.45;;
43646;SDS011;56152;49.996;18.980;2022-09-03T17:33:08;10.30;;;6.07;;
43646;SDS011;56152;49.996;18.980;2022-09-03T17:38:29;8.48;;;4.55;;
43646;SDS011;56152;49.996;18.980;2022-09-03T17:43:59;10.80;;;5.03;;
43646;SDS011;56152;49.996;18.980;2022-09-03T17:49:08;8.77;;;6.05;;
43646;SDS011;56152;49.996;18.980;2022-09-03T17:54:23;7.65;;;5.50;;
43646;SDS011;56152;49.996;18.980;2022-09-03T17:59:39;6.63;;;4.82;;
43646;SDS011;56152;49.996;18.980;2022-09-03T18:04:50;8.65;;;5.47;;
43646;SDS011;56152;49.996;18.980;2022-09-03T18:09:58;7.97;;;5.25;;
43646;SDS011;56152;49.996;18.980;2022-09-03T18:15:17;9.70;;;5.47;;
43646;SDS011;56152;49.996;18.980;2022-09-03T18:26:05;7.00;;;5.35;;
43646;SDS011;56152;49.996;18.980;2022-09-03T18:31:29;6.57;;;5.00;;
43646;SDS011;56152;49.996;18.980;2022-09-03T18:36:52;9.50;;;6.47;;
43646;SDS011;56152;49.996;18.980;2022-09-03T18:42:17;11.68;;;6.88;;
43646;SDS011;56152;49.996;18.980;2022-09-03T18:47:45;10.45;;;5.55;;
43646;SDS011;56152;49.996;18.980;2022-09-03T18:58:52;11.57;;;5.93;;
43646;SDS011;56152;49.996;18.980;2022-09-03T19:04:26;8.05;;;6.10;;
43646;SDS011;56152;49.996;18.980;2022-09-03T19:09:58;10.23;;;5.70;;
43646;SDS011;56152;49.996;18.980;2022-09-03T19:15:26;9.43;;;5.45;;
43646;SDS011;56152;49.996;18.980;2022-09-03T19:20:50;7.82;;;5.82;;
43646;SDS011;56152;49.996;18.980;2022-09-03T19:26:26;13.10;;;6.82;;
43646;SDS011;56152;49.996;18.980;2022-09-03T19:31:55;8.57;;;6.03;;
43646;SDS011;56152;49.996;18.980;2022-09-03T19:37:22;8.15;;;6.40;;
43646;SDS011;56152;49.996;18.980;2022-09-03T19:42:53;8.35;;;6.20;;
43646;SDS011;56152;49.996;18.980;2022-09-03T19:48:32;9.95;;;5.45;;
43646;SDS011;56152;49.996;18.980;2022-09-03T19:54:02;7.68;;;5.45;;
43646;SDS011;56152;49.996;18.980;2022-09-03T19:59:26;11.10;;;7.10;;
43646;SDS011;56152;49.996;18.980;2022-09-03T20:04:53;9.88;;;5.57;;
43646;SDS011;56152;49.996;18.980;2022-09-03T20:10:38;9.35;;;6.82;;
43646;SDS011;56152;49.996;18.980;2022-09-03T20:15:45;10.52;;;6.18;;
43646;SDS011;56152;49.996;18.980;2022-09-03T20:21:06;8.82;;;6.05;;
43646;SDS011;56152;49.996;18.980;2022-09-03T20:31:25;12.38;;;6.50;;
43646;SDS011;56152;49.996;18.980;2022-09-03T20:36:46;11.63;;;6.57;;
43646;SDS011;56152;49.996;18.980;2022-09-03T20:41:57;13.02;;;8.10;;
43646;SDS011;56152;49.996;18.980;2022-09-03T20:47:20;8.95;;;6.30;;
43646;SDS011;56152;49.996;18.980;2022-09-03T20:52:45;10.13;;;6.22;;
43646;SDS011;56152;49.996;18.980;2022-09-03T20:58:12;12.90;;;7.38;;
43646;SDS011;56152;49.996;18.980;2022-09-03T21:03:23;8.25;;;5.45;;
43646;SDS011;56152;49.996;18.980;2022-09-03T21:08:38;8.82;;;6.35;;
43646;SDS011;56152;49.996;18.980;2022-09-03T21:13:54;8.88;;;6.32;;
43646;SDS011;56152;49.996;18.980;2022-09-03T21:19:05;10.33;;;6.43;;
43646;SDS011;56152;49.996;18.980;2022-09-03T21:24:13;16.98;;;6.90;;
43646;SDS011;56152;49.996;18.980;2022-09-03T21:29:20;9.07;;;6.28;;
43646;SDS011;56152;49.996;18.980;2022-09-03T21:34:34;12.20;;;7.28;;
43646;SDS011;56152;49.996;18.980;2022-09-03T21:39:42;12.95;;;7.93;;
43646;SDS011;56152;49.996;18.980;2022-09-03T21:44:50;15.25;;;8.00;;
43646;SDS011;56152;49.996;18.980;2022-09-03T21:50:02;8.88;;;6.18;;
43646;SDS011;56152;49.996;18.980;2022-09-03T21:55:14;10.90;;;6.60;;
43646;SDS011;56152;49.996;18.980;2022-09-03T22:00:24;11.93;;;6.63;;
43646;SDS011;56152;49.996;18.980;2022-09-03T22:05:34;11.57;;;6.37;;
43646;SDS011;56152;49.996;18.980;2022-09-03T22:10:49;12.02;;;7.13;;
43646;SDS011;56152;49.996;18.980;2022-09-03T22:16:00;10.70;;;6.80;;
43646;SDS011;56152;49.996;18.980;2022-09-03T22:21:19;13.20;;;6.88;;
43646;SDS011;56152;49.996;18.980;2022-09-03T22:26:29;10.70;;;6.68;;
43646;SDS011;56152;49.996;18.980;2022-09-03T22:31:47;9.68;;;7.30;;
43646;SDS011;56152;49.996;18.980;2022-09-03T22:36:58;10.65;;;6.55;;
43646;SDS011;56152;49.996;18.980;2022-09-03T22:47:44;11.57;;;7.55;;
43646;SDS011;56152;49.996;18.980;2022-09-03T22:53:01;13.95;;;7.45;;
43646;SDS011;56152;49.996;18.980;2022-09-03T22:58:14;9.20;;;6.57;;
43646;SDS011;56152;49.996;18.980;2022-09-03T23:03:20;12.88;;;7.95;;
43646;SDS011;56152;49.996;18.980;2022-09-03T23:08:27;12.95;;;6.93;;
43646;SDS011;56152;49.996;18.980;2022-09-03T23:13:35;12.13;;;6.95;;
43646;SDS011;56152;49.996;18.980;2022-09-03T23:18:46;10.82;;;6.85;;
43646;SDS011;56152;49.996;18.980;2022-09-03T23:23:52;10.50;;;7.00;;
43646;SDS011;56152;49.996;18.980;2022-09-03T23:29:02;11.03;;;7.90;;
43646;SDS011;56152;49.996;18.980;2022-09-03T23:34:14;12.70;;;8.02;;
43646;SDS011;56152;49.996;18.980;2022-09-03T23:39:21;10.32;;;7.20;;
43646;SDS011;56152;49.996;18.980;2022-09-03T23:44:37;10.27;;;7.03;;
43646;SDS011;56152;49.996;18.980;2022-09-03T23:49:51;8.73;;;6.35;;
43646;SDS011;56152;49.996;18.980;2022-09-03T23:55:12;11.45;;;7.28;;
